sensor_id;sensor_type;location;lat;lon;timestamp;pressure;altitude;pressure_sealevel;temperature;humidity
59650;BME280;46162;57.568;25.814;2022-12-07T00:01:26;100422.84;;;-4.00;100.00
59650;BME280;46162;57.568;25.814;2022-12-07T00:03:57;100423.03;;;-4.04;100.00
59650;BME280;46162;57.568;25.814;2022-12-07T00:06:32;100426.28;;;-3.98;100.00
59650;BME280;46162;57.568;25.814;2022-12-07T00:09:01;100417.16;;;-4.11;100.00
59650;BME280;46162;57.568;25.814;2022-12-07T00:11:31;100419.59;;;-4.06;100.00
59650;BME280;46162;57.568;25.814;2022-12-07T00:14:02;100413.69;;;-4.12;100.00
59650;BME280;46162;57.568;25.814;2022-12-07T00:16:32;100411.75;;;-4.08;100.00
59650;BME280;46162;57.568;25.814;2022-12-07T00:19:02;100412.91;;;-3.93;100.00
59650;BME280;46162;57.568;25.814;2022-12-07T00:21:32;100417.69;;;-3.82;100.00
59650;BME280;46162;57.568;25.814;2022-12-07T00:24:02;100415.66;;;-3.96;100.00
59650;BME280;46162;57.568;25.814;2022-12-07T00:26:34;100411.75;;;-4.08;100.00
59650;BME280;46162;57.568;25.814;2022-12-07T00:29:05;100413.13;;;-3.79;100.00
59650;BME280;46162;57.568;25.814;2022-12-07T00:31:35;100419.22;;;-3.97;100.00
59650;BME280;46162;57.568;25.814;2022-12-07T00:34:07;100404.44;;;-4.01;100.00
59650;BME280;46162;57.568;25.814;2022-12-07T00:36:36;100405.53;;;-4.05;100.00
59650;BME280;46162;57.568;25.814;2022-12-07T00:39:04;100394.97;;;-4.05;100.00
59650;BME280;46162;57.568;25.814;2022-12-07T00:41:34;100395.09;;;-3.88;100.00
59650;BME280;46162;57.568;25.814;2022-12-07T00:44:03;100392.19;;;-4.02;100.00
59650;BME280;46162;57.568;25.814;2022-12-07T00:46:31;100391.34;;;-4.03;100.00
59650;BME280;46162;57.568;25.814;2022-12-07T00:49:00;100386.97;;;-4.04;100.00
59650;BME280;46162;57.568;25.814;2022-12-07T00:51:29;100388.63;;;-4.01;100.00
59650;BME280;46162;57.568;25.814;2022-12-07T00:53:57;100391.22;;;-4.00;100.00
59650;BME280;46162;57.568;25.814;2022-12-07T00:56:27;100390.88;;;-4.13;100.00
59650;BME280;46162;57.568;25.814;2022-12-07T00:58:58;100391.66;;;-4.11;100.00
59650;BME280;46162;57.568;25.814;2022-12-07T01:01:29;100389.16;;;-4.14;100.00
59650;BME280;46162;57.568;25.814;2022-12-07T01:03:59;100387.00;;;-4.24;100.00
59650;BME280;46162;57.568;25.814;2022-12-07T01:06:29;100388.91;;;-4.07;100.00
59650;BME280;46162;57.568;25.814;2022-12-07T01:08:58;100382.50;;;-4.02;100.00
59650;BME280;46162;57.568;25.814;2022-12-07T01:11:29;100380.13;;;-4.08;100.00
59650;BME280;46162;57.568;25.814;2022-12-07T01:13:59;100376.94;;;-3.96;100.00
59650;BME280;46162;57.568;25.814;2022-12-07T01:16:30;100377.09;;;-3.99;100.00
59650;BME280;46162;57.568;25.814;2022-12-07T01:18:59;100368.06;;;-4.14;100.00
59650;BME280;46162;57.568;25.814;2022-12-07T01:21:29;100378.22;;;-4.04;100.00
59650;BME280;46162;57.568;25.814;2022-12-07T01:24:02;100374.19;;;-4.13;100.00
59650;BME280;46162;57.568;25.814;2022-12-07T01:26:31;100371.88;;;-4.21;100.00
59650;BME280;46162;57.568;25.814;2022-12-07T01:29:01;100371.22;;;-4.26;100.00
59650;BME280;46162;57.568;25.814;2022-12-07T01:31:30;100372.03;;;-4.24;100.00
59650;BME280;46162;57.568;25.814;2022-12-07T01:33:59;100370.13;;;-4.20;100.00
59650;BME280;46162;57.568;25.814;2022-12-07T01:36:30;100363.97;;;-4.21;100.00
59650;BME280;46162;57.568;25.814;2022-12-07T01:39:01;100358.13;;;-4.07;100.00
59650;BME280;46162;57.568;25.814;2022-12-07T01:41:31;100349.59;;;-4.14;100.00
59650;BME280;46162;57.568;25.814;2022-12-07T01:44:17;100341.03;;;-4.19;100.00
59650;BME280;46162;57.568;25.814;2022-12-07T01:46:47;100344.00;;;-4.06;100.00
59650;BME280;46162;57.568;25.814;2022-12-07T01:49:21;100341.97;;;-4.20;100.00
59650;BME280;46162;57.568;25.814;2022-12-07T01:51:54;100342.78;;;-4.18;100.00
59650;BME280;46162;57.568;25.814;2022-12-07T01:54:25;100335.97;;;-4.23;100.00
59650;BME280;46162;57.568;25.814;2022-12-07T01:56:56;100338.41;;;-4.19;100.00
59650;BME280;46162;57.568;25.814;2022-12-07T01:59:27;100327.53;;;-4.11;100.00
59650;BME280;46162;57.568;25.814;2022-12-07T02:01:56;100329.22;;;-3.90;100.00
59650;BME280;46162;57.568;25.814;2022-12-07T02:04:25;100330.91;;;-4.07;100.00
59650;BME280;46162;57.568;25.814;2022-12-07T02:06:54;100324.69;;;-4.06;100.00
59650;BME280;46162;57.568;25.814;2022-12-07T02:09:24;100318.31;;;-4.21;100.00
59650;BME280;46162;57.568;25.814;2022-12-07T02:11:53;100323.59;;;-4.21;100.00
59650;BME280;46162;57.568;25.814;2022-12-07T02:14:23;100321.63;;;-4.37;100.00
59650;BME280;46162;57.568;25.814;2022-12-07T02:17:02;100316.53;;;-4.21;100.00
59650;BME280;46162;57.568;25.814;2022-12-07T02:25:41;100307.38;;;-4.12;100.00
59650;BME280;46162;57.568;25.814;2022-12-07T02:28:21;100304.09;;;-3.98;100.00
59650;BME280;46162;57.568;25.814;2022-12-07T02:31:00;100303.94;;;-4.14;100.00
59650;BME280;46162;57.568;25.814;2022-12-07T02:33:33;100297.41;;;-4.05;100.00
59650;BME280;46162;57.568;25.814;2022-12-07T02:36:07;100295.56;;;-3.84;100.00
59650;BME280;46162;57.568;25.814;2022-12-07T02:38:44;100299.13;;;-4.04;100.00
59650;BME280;46162;57.568;25.814;2022-12-07T02:41:20;100298.31;;;-4.06;100.00
59650;BME280;46162;57.568;25.814;2022-12-07T02:43:53;100294.84;;;-4.07;100.00
59650;BME280;46162;57.568;25.814;2022-12-07T02:46:27;100291.72;;;-3.96;100.00
59650;BME280;46162;57.568;25.814;2022-12-07T02:48:58;100287.16;;;-3.93;100.00
59650;BME280;46162;57.568;25.814;2022-12-07T02:51:30;100276.63;;;-4.13;100.00
59650;BME280;46162;57.568;25.814;2022-12-07T02:53:59;100285.19;;;-4.08;100.00
59650;BME280;46162;57.568;25.814;2022-12-07T02:56:35;100282.34;;;-4.03;100.00
59650;BME280;46162;57.568;25.814;2022-12-07T02:59:13;100278.81;;;-4.02;100.00
59650;BME280;46162;57.568;25.814;2022-12-07T03:01:53;100282.00;;;-3.96;100.00
59650;BME280;46162;57.568;25.814;2022-12-07T03:04:33;100275.88;;;-4.15;100.00
59650;BME280;46162;57.568;25.814;2022-12-07T03:07:11;100273.41;;;-3.99;100.00
59650;BME280;46162;57.568;25.814;2022-12-07T03:09:45;100265.78;;;-4.05;100.00
59650;BME280;46162;57.568;25.814;2022-12-07T03:12:17;100258.78;;;-4.06;100.00
59650;BME280;46162;57.568;25.814;2022-12-07T03:14:50;100266.03;;;-4.12;100.00
59650;BME280;46162;57.568;25.814;2022-12-07T03:17:25;100261.56;;;-4.09;100.00
59650;BME280;46162;57.568;25.814;2022-12-07T03:19:58;100253.19;;;-4.19;100.00
59650;BME280;46162;57.568;25.814;2022-12-07T03:22:31;100252.22;;;-4.17;100.00
59650;BME280;46162;57.568;25.814;2022-12-07T03:25:04;100247.09;;;-4.20;100.00
59650;BME280;46162;57.568;25.814;2022-12-07T03:27:39;100242.91;;;-4.25;100.00
59650;BME280;46162;57.568;25.814;2022-12-07T03:30:10;100238.38;;;-4.22;100.00
59650;BME280;46162;57.568;25.814;2022-12-07T03:32:45;100239.97;;;-4.18;100.00
59650;BME280;46162;57.568;25.814;2022-12-07T03:35:21;100232.97;;;-4.19;100.00
59650;BME280;46162;57.568;25.814;2022-12-07T03:37:55;100238.31;;;-4.20;100.00
59650;BME280;46162;57.568;25.814;2022-12-07T03:40:29;100239.16;;;-4.01;100.00
59650;BME280;46162;57.568;25.814;2022-12-07T03:43:00;100227.63;;;-4.17;100.00
59650;BME280;46162;57.568;25.814;2022-12-07T03:45:34;100222.28;;;-4.16;100.00
59650;BME280;46162;57.568;25.814;2022-12-07T03:48:10;100213.31;;;-4.12;100.00
59650;BME280;46162;57.568;25.814;2022-12-07T03:50:48;100214.91;;;-4.07;100.00
59650;BME280;46162;57.568;25.814;2022-12-07T03:53:22;100207.09;;;-4.11;100.00
59650;BME280;46162;57.568;25.814;2022-12-07T03:55:54;100208.09;;;-4.13;100.00
59650;BME280;46162;57.568;25.814;2022-12-07T03:58:24;100209.63;;;-4.07;100.00
59650;BME280;46162;57.568;25.814;2022-12-07T04:00:55;100194.22;;;-4.17;100.00
59650;BME280;46162;57.568;25.814;2022-12-07T04:03:25;100197.91;;;-4.21;100.00
59650;BME280;46162;57.568;25.814;2022-12-07T04:05:54;100200.28;;;-4.15;100.00
59650;BME280;46162;57.568;25.814;2022-12-07T04:08:25;100202.06;;;-4.15;100.00
59650;BME280;46162;57.568;25.814;2022-12-07T04:10:55;100187.81;;;-3.92;100.00
59650;BME280;46162;57.568;25.814;2022-12-07T04:13:23;100186.44;;;-4.01;100.00
59650;BME280;46162;57.568;25.814;2022-12-07T04:15:55;100181.75;;;-3.94;100.00
59650;BME280;46162;57.568;25.814;2022-12-07T04:18:26;100183.59;;;-3.96;100.00
59650;BME280;46162;57.568;25.814;2022-12-07T04:20:54;100189.59;;;-4.12;100.00
59650;BME280;46162;57.568;25.814;2022-12-07T04:23:23;100182.94;;;-4.01;100.00
59650;BME280;46162;57.568;25.814;2022-12-07T04:25:52;100183.66;;;-4.17;100.00
59650;BME280;46162;57.568;25.814;2022-12-07T04:28:21;100178.09;;;-4.11;100.00
59650;BME280;46162;57.568;25.814;2022-12-07T04:30:50;100179.31;;;-3.99;100.00
59650;BME280;46162;57.568;25.814;2022-12-07T04:33:19;100176.47;;;-3.94;100.00
59650;BME280;46162;57.568;25.814;2022-12-07T04:35:50;100177.53;;;-3.98;100.00
59650;BME280;46162;57.568;25.814;2022-12-07T04:38:19;100170.13;;;-3.90;100.00
59650;BME280;46162;57.568;25.814;2022-12-07T04:40:48;100168.91;;;-4.02;100.00
59650;BME280;46162;57.568;25.814;2022-12-07T04:43:16;100167.84;;;-3.98;100.00
59650;BME280;46162;57.568;25.814;2022-12-07T04:45:46;100165.06;;;-3.95;100.00
59650;BME280;46162;57.568;25.814;2022-12-07T04:48:15;100166.97;;;-3.79;100.00
59650;BME280;46162;57.568;25.814;2022-12-07T04:50:44;100170.34;;;-3.95;100.00
59650;BME280;46162;57.568;25.814;2022-12-07T04:53:17;100164.69;;;-3.87;100.00
59650;BME280;46162;57.568;25.814;2022-12-07T04:55:46;100167.34;;;-3.87;100.00
59650;BME280;46162;57.568;25.814;2022-12-07T04:58:15;100164.69;;;-3.87;100.00
59650;BME280;46162;57.568;25.814;2022-12-07T05:00:45;100170.41;;;-3.96;100.00
59650;BME280;46162;57.568;25.814;2022-12-07T05:03:14;100158.78;;;-4.11;100.00
59650;BME280;46162;57.568;25.814;2022-12-07T05:05:42;100158.88;;;-4.13;100.00
59650;BME280;46162;57.568;25.814;2022-12-07T05:08:11;100150.69;;;-4.06;100.00
59650;BME280;46162;57.568;25.814;2022-12-07T05:10:41;100158.56;;;-3.87;100.00
59650;BME280;46162;57.568;25.814;2022-12-07T05:13:10;100155.09;;;-4.07;100.00
59650;BME280;46162;57.568;25.814;2022-12-07T05:15:39;100153.72;;;-3.97;100.00
59650;BME280;46162;57.568;25.814;2022-12-07T05:18:10;100148.63;;;-4.00;100.00
59650;BME280;46162;57.568;25.814;2022-12-07T05:20:39;100143.91;;;-3.93;100.00
59650;BME280;46162;57.568;25.814;2022-12-07T05:23:10;100142.03;;;-3.91;100.00
59650;BME280;46162;57.568;25.814;2022-12-07T05:25:45;100141.03;;;-3.89;100.00
59650;BME280;46162;57.568;25.814;2022-12-07T05:28:14;100144.38;;;-3.85;100.00
59650;BME280;46162;57.568;25.814;2022-12-07T05:30:43;100139.31;;;-3.90;100.00
59650;BME280;46162;57.568;25.814;2022-12-07T05:33:12;100149.63;;;-4.02;100.00
59650;BME280;46162;57.568;25.814;2022-12-07T05:35:41;100148.66;;;-4.01;100.00
59650;BME280;46162;57.568;25.814;2022-12-07T05:38:12;100140.44;;;-4.13;100.00
59650;BME280;46162;57.568;25.814;2022-12-07T05:40:41;100143.13;;;-4.14;100.00
59650;BME280;46162;57.568;25.814;2022-12-07T05:43:12;100143.69;;;-4.26;100.00
59650;BME280;46162;57.568;25.814;2022-12-07T05:45:41;100136.38;;;-4.20;100.00
59650;BME280;46162;57.568;25.814;2022-12-07T05:48:09;100132.75;;;-4.17;100.00
59650;BME280;46162;57.568;25.814;2022-12-07T05:50:41;100133.16;;;-4.26;100.00
59650;BME280;46162;57.568;25.814;2022-12-07T05:53:11;100136.50;;;-4.23;100.00
59650;BME280;46162;57.568;25.814;2022-12-07T05:55:52;100134.38;;;-4.15;100.00
59650;BME280;46162;57.568;25.814;2022-12-07T05:58:24;100131.09;;;-4.20;100.00
59650;BME280;46162;57.568;25.814;2022-12-07T06:01:11;100127.53;;;-4.19;100.00
59650;BME280;46162;57.568;25.814;2022-12-07T06:03:39;100120.66;;;-4.04;100.00
59650;BME280;46162;57.568;25.814;2022-12-07T06:06:08;100125.56;;;-3.96;100.00
59650;BME280;46162;57.568;25.814;2022-12-07T06:08:37;100123.97;;;-4.18;100.00
59650;BME280;46162;57.568;25.814;2022-12-07T06:11:05;100121.25;;;-4.16;100.00
59650;BME280;46162;57.568;25.814;2022-12-07T06:13:52;100113.38;;;-3.99;100.00
59650;BME280;46162;57.568;25.814;2022-12-07T06:16:21;100119.13;;;-4.27;100.00
59650;BME280;46162;57.568;25.814;2022-12-07T06:18:50;100115.28;;;-4.20;100.00
59650;BME280;46162;57.568;25.814;2022-12-07T06:21:19;100106.81;;;-4.26;100.00
59650;BME280;46162;57.568;25.814;2022-12-07T06:23:48;100112.56;;;-4.18;100.00
59650;BME280;46162;57.568;25.814;2022-12-07T06:26:17;100113.44;;;-4.18;100.00
59650;BME280;46162;57.568;25.814;2022-12-07T06:28:46;100115.97;;;-4.16;100.00
59650;BME280;46162;57.568;25.814;2022-12-07T06:31:16;100109.28;;;-4.23;100.00
59650;BME280;46162;57.568;25.814;2022-12-07T06:33:45;100107.16;;;-4.34;100.00
59650;BME280;46162;57.568;25.814;2022-12-07T06:36:14;100098.03;;;-4.27;100.00
59650;BME280;46162;57.568;25.814;2022-12-07T06:38:42;100111.56;;;-4.16;100.00
59650;BME280;46162;57.568;25.814;2022-12-07T06:41:21;100105.00;;;-4.26;100.00
59650;BME280;46162;57.568;25.814;2022-12-07T06:43:53;100106.59;;;-4.22;100.00
59650;BME280;46162;57.568;25.814;2022-12-07T06:46:24;100094.63;;;-4.29;100.00
59650;BME280;46162;57.568;25.814;2022-12-07T06:48:53;100100.53;;;-4.24;100.00
59650;BME280;46162;57.568;25.814;2022-12-07T06:51:22;100096.03;;;-4.22;100.00
59650;BME280;46162;57.568;25.814;2022-12-07T06:53:51;100098.03;;;-4.27;100.00
59650;BME280;46162;57.568;25.814;2022-12-07T06:56:20;100090.72;;;-4.20;100.00
59650;BME280;46162;57.568;25.814;2022-12-07T06:58:50;100097.03;;;-4.05;100.00
59650;BME280;46162;57.568;25.814;2022-12-07T07:01:18;100093.81;;;-4.12;100.00
59650;BME280;46162;57.568;25.814;2022-12-07T07:03:51;100096.41;;;-4.29;100.00
59650;BME280;46162;57.568;25.814;2022-12-07T07:06:21;100092.13;;;-4.32;100.00
59650;BME280;46162;57.568;25.814;2022-12-07T07:08:51;100095.56;;;-4.30;100.00
59650;BME280;46162;57.568;25.814;2022-12-07T07:11:20;100097.69;;;-4.38;100.00
59650;BME280;46162;57.568;25.814;2022-12-07T07:13:49;100093.50;;;-4.42;100.00
59650;BME280;46162;57.568;25.814;2022-12-07T07:16:18;100092.28;;;-4.35;100.00
59650;BME280;46162;57.568;25.814;2022-12-07T07:18:47;100095.13;;;-4.40;100.00
59650;BME280;46162;57.568;25.814;2022-12-07T07:21:17;100093.47;;;-4.23;100.00
59650;BME280;46162;57.568;25.814;2022-12-07T07:23:46;100093.41;;;-4.22;100.00
59650;BME280;46162;57.568;25.814;2022-12-07T07:26:15;100095.47;;;-4.28;100.00
59650;BME280;46162;57.568;25.814;2022-12-07T07:28:49;100089.19;;;-4.26;100.00
59650;BME280;46162;57.568;25.814;2022-12-07T07:31:18;100091.03;;;-4.28;100.00
59650;BME280;46162;57.568;25.814;2022-12-07T07:33:47;100096.75;;;-4.18;100.00
59650;BME280;46162;57.568;25.814;2022-12-07T07:36:18;100093.47;;;-4.23;100.00
59650;BME280;46162;57.568;25.814;2022-12-07T07:38:46;100083.09;;;-4.45;100.00
59650;BME280;46162;57.568;25.814;2022-12-07T07:41:15;100090.00;;;-4.43;100.00
59650;BME280;46162;57.568;25.814;2022-12-07T07:43:44;100089.28;;;-4.46;100.00
59650;BME280;46162;57.568;25.814;2022-12-07T07:46:13;100077.06;;;-4.47;100.00
59650;BME280;46162;57.568;25.814;2022-12-07T07:48:42;100088.13;;;-4.41;100.00
59650;BME280;46162;57.568;25.814;2022-12-07T07:51:18;100083.22;;;-4.48;100.00
59650;BME280;46162;57.568;25.814;2022-12-07T07:53:47;100084.50;;;-4.38;100.00
59650;BME280;46162;57.568;25.814;2022-12-07T07:56:16;100083.13;;;-4.28;100.00
59650;BME280;46162;57.568;25.814;2022-12-07T07:58:51;100085.09;;;-4.32;100.00
59650;BME280;46162;57.568;25.814;2022-12-07T08:01:20;100087.56;;;-4.28;100.00
59650;BME280;46162;57.568;25.814;2022-12-07T08:03:49;100081.44;;;-4.29;100.00
59650;BME280;46162;57.568;25.814;2022-12-07T08:06:19;100079.81;;;-4.13;100.00
59650;BME280;46162;57.568;25.814;2022-12-07T08:21:37;100051.59;;;-4.29;100.00
59650;BME280;46162;57.568;25.814;2022-12-07T08:24:06;100060.22;;;-4.26;100.00
59650;BME280;46162;57.568;25.814;2022-12-07T08:26:35;100052.75;;;-4.35;100.00
59650;BME280;46162;57.568;25.814;2022-12-07T08:29:04;100047.97;;;-4.27;100.00
59650;BME280;46162;57.568;25.814;2022-12-07T08:31:33;100051.19;;;-4.39;100.00
59650;BME280;46162;57.568;25.814;2022-12-07T08:34:02;100039.63;;;-4.18;100.00
59650;BME280;46162;57.568;25.814;2022-12-07T08:36:32;100054.44;;;-4.15;100.00
59650;BME280;46162;57.568;25.814;2022-12-07T08:39:03;100042.75;;;-4.28;100.00
59650;BME280;46162;57.568;25.814;2022-12-07T08:41:52;100033.78;;;-4.24;100.00
59650;BME280;46162;57.568;25.814;2022-12-07T08:44:21;100041.59;;;-4.23;100.00
59650;BME280;46162;57.568;25.814;2022-12-07T08:46:52;100029.03;;;-4.35;100.00
59650;BME280;46162;57.568;25.814;2022-12-07T08:49:26;100027.66;;;-4.25;100.00
59650;BME280;46162;57.568;25.814;2022-12-07T08:51:58;100017.56;;;-4.34;100.00
59650;BME280;46162;57.568;25.814;2022-12-07T08:54:30;100015.13;;;-4.20;100.00
59650;BME280;46162;57.568;25.814;2022-12-07T08:56:59;99996.16;;;-4.28;100.00
59650;BME280;46162;57.568;25.814;2022-12-07T08:59:28;100013.50;;;-4.22;100.00
59650;BME280;46162;57.568;25.814;2022-12-07T09:01:58;100009.66;;;-4.34;100.00
59650;BME280;46162;57.568;25.814;2022-12-07T09:04:27;99987.78;;;-4.36;100.00
59650;BME280;46162;57.568;25.814;2022-12-07T09:06:57;100006.03;;;-4.14;100.00
59650;BME280;46162;57.568;25.814;2022-12-07T09:09:26;99990.78;;;-4.25;100.00
59650;BME280;46162;57.568;25.814;2022-12-07T09:11:57;100002.88;;;-4.03;100.00
59650;BME280;46162;57.568;25.814;2022-12-07T09:14:26;100000.22;;;-4.03;100.00
59650;BME280;46162;57.568;25.814;2022-12-07T09:16:55;99987.53;;;-4.13;100.00
59650;BME280;46162;57.568;25.814;2022-12-07T09:19:24;99986.78;;;-4.34;100.00
59650;BME280;46162;57.568;25.814;2022-12-07T09:21:55;99975.72;;;-4.23;100.00
59650;BME280;46162;57.568;25.814;2022-12-07T09:24:24;99988.03;;;-4.23;100.00
59650;BME280;46162;57.568;25.814;2022-12-07T09:26:53;99979.44;;;-4.27;100.00
59650;BME280;46162;57.568;25.814;2022-12-07T09:29:24;99973.22;;;-4.26;100.00
59650;BME280;46162;57.568;25.814;2022-12-07T09:31:53;99975.41;;;-4.34;100.00
59650;BME280;46162;57.568;25.814;2022-12-07T09:34:23;99975.41;;;-4.34;100.00
59650;BME280;46162;57.568;25.814;2022-12-07T09:36:53;99969.66;;;-4.42;100.00
59650;BME280;46162;57.568;25.814;2022-12-07T09:39:22;99972.59;;;-4.31;100.00
59650;BME280;46162;57.568;25.814;2022-12-07T09:41:51;99962.53;;;-4.23;100.00
59650;BME280;46162;57.568;25.814;2022-12-07T09:44:24;99961.78;;;-4.25;100.00
59650;BME280;46162;57.568;25.814;2022-12-07T09:46:54;99955.94;;;-4.32;100.00
59650;BME280;46162;57.568;25.814;2022-12-07T09:49:27;99961.63;;;-4.22;100.00
59650;BME280;46162;57.568;25.814;2022-12-07T09:52:02;99960.16;;;-4.27;100.00
59650;BME280;46162;57.568;25.814;2022-12-07T09:54:33;99950.75;;;-4.16;100.00
59650;BME280;46162;57.568;25.814;2022-12-07T09:57:05;99958.91;;;-4.20;100.00
59650;BME280;46162;57.568;25.814;2022-12-07T09:59:37;99952.00;;;-4.23;100.00
59650;BME280;46162;57.568;25.814;2022-12-07T10:02:24;99950.91;;;-4.19;100.00
59650;BME280;46162;57.568;25.814;2022-12-07T10:04:57;99949.72;;;-4.30;100.00
59650;BME280;46162;57.568;25.814;2022-12-07T10:07:27;99952.31;;;-4.29;100.00
59650;BME280;46162;57.568;25.814;2022-12-07T10:09:57;99942.69;;;-4.47;100.00
59650;BME280;46162;57.568;25.814;2022-12-07T10:12:26;99932.16;;;-4.30;100.00
59650;BME280;46162;57.568;25.814;2022-12-07T10:15:00;99927.56;;;-4.44;100.00
59650;BME280;46162;57.568;25.814;2022-12-07T10:17:49;99935.72;;;-4.31;100.00
59650;BME280;46162;57.568;25.814;2022-12-07T10:20:21;99927.19;;;-4.01;100.00
59650;BME280;46162;57.568;25.814;2022-12-07T10:22:59;99922.94;;;-4.04;100.00
59650;BME280;46162;57.568;25.814;2022-12-07T10:25:31;99918.97;;;-3.95;100.00
59650;BME280;46162;57.568;25.814;2022-12-07T10:28:08;99914.78;;;-3.99;100.00
59650;BME280;46162;57.568;25.814;2022-12-07T10:30:56;99920.13;;;-4.18;100.00
59650;BME280;46162;57.568;25.814;2022-12-07T10:33:34;99907.81;;;-4.00;100.00
59650;BME280;46162;57.568;25.814;2022-12-07T10:36:21;99907.84;;;-4.18;100.00
59650;BME280;46162;57.568;25.814;2022-12-07T10:38:52;99897.34;;;-4.19;100.00
59650;BME280;46162;57.568;25.814;2022-12-07T10:41:22;99901.44;;;-4.31;100.00
59650;BME280;46162;57.568;25.814;2022-12-07T10:43:53;99905.09;;;-4.16;100.00
59650;BME280;46162;57.568;25.814;2022-12-07T10:46:49;99897.75;;;-4.09;100.00
59650;BME280;46162;57.568;25.814;2022-12-07T10:50:08;99895.16;;;-4.28;100.00
59650;BME280;46162;57.568;25.814;2022-12-07T10:52:56;99887.25;;;-4.46;100.00
59650;BME280;46162;57.568;25.814;2022-12-07T10:55:35;99884.41;;;-4.41;100.00
59650;BME280;46162;57.568;25.814;2022-12-07T10:58:24;99884.25;;;-4.38;100.00
59650;BME280;46162;57.568;25.814;2022-12-07T11:00:58;99876.88;;;-4.32;100.00
59650;BME280;46162;57.568;25.814;2022-12-07T11:03:48;99874.47;;;-4.19;100.00
59650;BME280;46162;57.568;25.814;2022-12-07T11:06:23;99883.47;;;-4.40;100.00
59650;BME280;46162;57.568;25.814;2022-12-07T11:09:04;99872.41;;;-4.29;100.00
59650;BME280;46162;57.568;25.814;2022-12-07T11:11:38;99868.59;;;-4.24;100.00
59650;BME280;46162;57.568;25.814;2022-12-07T11:14:16;99867.97;;;-4.29;100.00
59650;BME280;46162;57.568;25.814;2022-12-07T11:16:55;99869.81;;;-4.31;100.00
59650;BME280;46162;57.568;25.814;2022-12-07T11:19:42;99865.94;;;-4.24;100.00
59650;BME280;46162;57.568;25.814;2022-12-07T11:22:19;99866.91;;;-4.42;100.00
59650;BME280;46162;57.568;25.814;2022-12-07T11:24:56;99863.31;;;-4.41;100.00
59650;BME280;46162;57.568;25.814;2022-12-07T11:27:35;99850.75;;;-4.36;100.00
59650;BME280;46162;57.568;25.814;2022-12-07T11:30:13;99854.19;;;-4.34;100.00
59650;BME280;46162;57.568;25.814;2022-12-07T11:33:01;99848.13;;;-4.54;100.00
59650;BME280;46162;57.568;25.814;2022-12-07T11:35:45;99847.28;;;-4.54;100.00
59650;BME280;46162;57.568;25.814;2022-12-07T11:38:22;99850.53;;;-4.32;100.00
59650;BME280;46162;57.568;25.814;2022-12-07T11:40:59;99844.59;;;-4.35;100.00
59650;BME280;46162;57.568;25.814;2022-12-07T11:43:52;99844.69;;;-4.21;100.00
59650;BME280;46162;57.568;25.814;2022-12-07T11:46:25;99836.50;;;-4.32;100.00
59650;BME280;46162;57.568;25.814;2022-12-07T11:49:02;99845.03;;;-4.44;100.00
59650;BME280;46162;57.568;25.814;2022-12-07T11:51:36;99839.22;;;-4.34;100.00
59650;BME280;46162;57.568;25.814;2022-12-07T11:54:12;99832.31;;;-4.36;100.00
59650;BME280;46162;57.568;25.814;2022-12-07T11:56:45;99828.00;;;-4.55;100.00
59650;BME280;46162;57.568;25.814;2022-12-07T11:59:22;99823.72;;;-4.40;100.00
59650;BME280;46162;57.568;25.814;2022-12-07T12:01:56;99821.94;;;-4.39;100.00
59650;BME280;46162;57.568;25.814;2022-12-07T12:04:31;99820.53;;;-4.46;100.00
59650;BME280;46162;57.568;25.814;2022-12-07T12:07:06;99812.66;;;-4.46;100.00
59650;BME280;46162;57.568;25.814;2022-12-07T12:10:01;99811.09;;;-4.50;100.00
59650;BME280;46162;57.568;25.814;2022-12-07T12:12:48;99810.78;;;-4.44;100.00
59650;BME280;46162;57.568;25.814;2022-12-07T12:15:57;99799.03;;;-4.55;100.00
59650;BME280;46162;57.568;25.814;2022-12-07T12:18:48;99795.06;;;-4.63;100.00
59650;BME280;46162;57.568;25.814;2022-12-07T12:21:26;99797.84;;;-4.66;100.00
59650;BME280;46162;57.568;25.814;2022-12-07T12:23:59;99791.75;;;-4.67;100.00
59650;BME280;46162;57.568;25.814;2022-12-07T12:26:33;99791.75;;;-4.67;100.00
59650;BME280;46162;57.568;25.814;2022-12-07T12:29:05;99784.13;;;-4.73;100.00
59650;BME280;46162;57.568;25.814;2022-12-07T12:31:38;99776.84;;;-4.68;100.00
59650;BME280;46162;57.568;25.814;2022-12-07T12:34:39;99772.13;;;-4.61;100.00
59650;BME280;46162;57.568;25.814;2022-12-07T12:37:39;99768.94;;;-4.50;100.00
59650;BME280;46162;57.568;25.814;2022-12-07T12:40:41;99770.66;;;-4.49;100.00
59650;BME280;46162;57.568;25.814;2022-12-07T12:46:49;99768.81;;;-4.65;100.00
59650;BME280;46162;57.568;25.814;2022-12-07T12:49:37;99767.88;;;-4.64;100.00
59650;BME280;46162;57.568;25.814;2022-12-07T12:58:41;99758.63;;;-4.72;100.00
59650;BME280;46162;57.568;25.814;2022-12-07T13:01:44;99745.88;;;-4.80;100.00
59650;BME280;46162;57.568;25.814;2022-12-07T13:04:21;99745.56;;;-4.57;100.00
59650;BME280;46162;57.568;25.814;2022-12-07T13:06:52;99741.38;;;-4.78;100.00
59650;BME280;46162;57.568;25.814;2022-12-07T13:09:24;99737.06;;;-4.79;100.00
59650;BME280;46162;57.568;25.814;2022-12-07T13:12:01;99739.13;;;-4.86;100.00
59650;BME280;46162;57.568;25.814;2022-12-07T13:14:59;99735.50;;;-4.83;100.00
59650;BME280;46162;57.568;25.814;2022-12-07T13:17:58;99736.91;;;-4.76;100.00
59650;BME280;46162;57.568;25.814;2022-12-07T13:20:47;99737.59;;;-4.90;100.00
59650;BME280;46162;57.568;25.814;2022-12-07T13:23:20;99737.19;;;-4.82;100.00
59650;BME280;46162;57.568;25.814;2022-12-07T13:26:21;99720.78;;;-4.87;100.00
59650;BME280;46162;57.568;25.814;2022-12-07T13:29:06;99727.16;;;-4.91;100.00
59650;BME280;46162;57.568;25.814;2022-12-07T13:31:40;99721.03;;;-4.92;100.00
59650;BME280;46162;57.568;25.814;2022-12-07T13:34:31;99716.00;;;-4.97;100.00